Time;durP1;ratioP1;P1;durP2;ratioP2;P2;SDS_P1;SDS_P2;PMS_P1;PMS_P2;Temp;Humidity;BMP_temperature;BMP_pressure;BME280_temperature;BME280_humidity;BME280_pressure;Samples;Min_cycle;Max_cycle;Signal;HPM_P1;HPM_P2
2023/09/24 04:00:33;;;;;;;;;;;11.20;99.90;;;;;;5872070;23;20713;-74
2023/09/24 04:02:59;;;;;;;;;;;11.10;99.90;;;;;;4977080;28;19922;-75
2023/09/24 04:05:24;;;;;;;;;;;11.20;99.90;;;;;;4976647;28;20396;-75
2023/09/24 04:07:51;;;;;;;;;;;11.20;99.90;;;;;;4976720;28;19922;-76
2023/09/24 04:10:18;;;;;;;;;;;11.20;99.90;;;;;;4979612;28;20450;-76
2023/09/24 04:12:46;;;;;;;;;;;11.10;99.90;;;;;;4980472;28;20381;-76
2023/09/24 04:15:12;;;;;;;;;;;11.10;99.90;;;;;;4980733;28;20325;-76
2023/09/24 04:17:38;;;;;;;;;;;11.10;99.90;;;;;;4997923;28;19940;-75
2023/09/24 04:20:06;;;;;;;;;;;11.00;99.90;;;;;;4997868;28;20016;-75
2023/09/24 04:22:31;;;;;;;;;;;11.10;99.90;;;;;;4980236;28;19928;-76
2023/09/24 04:24:57;;;;;;;;;;;11.00;99.90;;;;;;4980219;28;20297;-76
2023/09/24 04:27:22;;;;;;;;;;;11.00;99.90;;;;;;4997764;28;19929;-76
2023/09/24 04:29:48;;;;;;;;;;;11.00;99.90;;;;;;4980203;28;19973;-76
2023/09/24 04:32:15;;;;;;;;;;;11.00;99.90;;;;;;4980146;28;19996;-75
2023/09/24 04:34:41;;;;;;;;;;;10.90;99.90;;;;;;4980390;28;19921;-76
2023/09/24 04:37:06;;;;;;;;;;;10.90;99.90;;;;;;4980706;28;19921;-76
2023/09/24 04:39:32;;;;;;;;;;;10.90;99.90;;;;;;4980010;28;20366;-76
2023/09/24 04:41:58;;;;;;;;;;;10.90;99.90;;;;;;4980218;28;19973;-77
2023/09/24 04:44:24;;;;;;;;;;;10.80;99.90;;;;;;4979993;28;20056;-77
2023/09/24 04:46:49;;;;;;;;;;;10.80;99.90;;;;;;4979876;28;20417;-76
2023/09/24 04:49:15;;;;;;;;;;;10.80;99.90;;;;;;4979878;28;19925;-76
2023/09/24 04:51:41;;;;;;;;;;;10.80;99.90;;;;;;4979759;28;19981;-75
2023/09/24 04:54:06;;;;;;;;;;;10.80;99.90;;;;;;4980056;28;19929;-76
2023/09/24 04:56:32;;;;;;;;;;;10.70;99.90;;;;;;4979761;28;19922;-76
2023/09/24 04:58:57;;;;;;;;;;;10.70;99.90;;;;;;4979703;28;19922;-75
2023/09/24 05:01:23;;;;;;;;;;;10.70;99.90;;;;;;4979477;28;19929;-76
2023/09/24 05:03:52;;;;;;;;;;;10.70;99.90;;;;;;4997260;28;19973;-76
2023/09/24 05:06:18;;;;;;;;;;;10.70;99.90;;;;;;4979499;28;19968;-77
2023/09/24 05:08:44;;;;;;;;;;;10.70;99.90;;;;;;4979447;28;20015;-75
2023/09/24 05:11:10;;;;;;;;;;;10.70;99.90;;;;;;4996814;28;19991;-76
2023/09/24 05:13:36;;;;;;;;;;;10.60;99.90;;;;;;4979525;28;19954;-75
2023/09/24 05:16:02;;;;;;;;;;;10.60;99.90;;;;;;4963160;28;20309;-76
2023/09/24 05:18:27;;;;;;;;;;;10.60;99.90;;;;;;4979196;28;19962;-75
2023/09/24 05:20:54;;;;;;;;;;;10.60;99.90;;;;;;4961821;28;19929;-75
2023/09/24 05:23:20;;;;;;;;;;;10.60;99.90;;;;;;4996760;28;19969;-76
2023/09/24 05:25:45;;;;;;;;;;;10.50;99.90;;;;;;4978964;28;19930;-76
2023/09/24 05:28:11;;;;;;;;;;;10.50;99.90;;;;;;4979167;28;20388;-76
2023/09/24 05:30:36;;;;;;;;;;;10.50;99.90;;;;;;4996498;28;20021;-76
2023/09/24 05:33:03;;;;;;;;;;;10.50;99.90;;;;;;4979108;28;19968;-76
2023/09/24 05:35:29;;;;;;;;;;;10.50;99.90;;;;;;4996382;28;19926;-75
2023/09/24 05:37:54;;;;;;;;;;;10.50;99.90;;;;;;4978882;28;20417;-75
2023/09/24 05:40:20;;;;;;;;;;;10.50;99.90;;;;;;4978702;28;19922;-76
2023/09/24 05:42:46;;;;;;;;;;;10.40;99.90;;;;;;4978811;28;19922;-75
2023/09/24 05:45:12;;;;;;;;;;;10.50;99.90;;;;;;4978675;28;19981;-76
2023/09/24 05:47:37;;;;;;;;;;;10.40;99.90;;;;;;4978963;28;19972;-76
2023/09/24 05:50:03;;;;;;;;;;;10.40;99.90;;;;;;4978620;28;20385;-75
2023/09/24 05:52:29;;;;;;;;;;;10.40;99.90;;;;;;4978597;28;20381;-76
2023/09/24 05:54:55;;;;;;;;;;;10.50;99.90;;;;;;4978598;28;20024;-75
2023/09/24 05:57:21;;;;;;;;;;;10.40;99.90;;;;;;4978539;28;19953;-76
2023/09/24 05:59:46;;;;;;;;;;;10.50;99.90;;;;;;4996005;28;20351;-76
2023/09/24 06:02:12;;;;;;;;;;;10.50;99.90;;;;;;4978277;28;19988;-76
2023/09/24 06:04:37;;;;;;;;;;;10.50;99.90;;;;;;4978303;28;20285;-76
2023/09/24 06:07:03;;;;;;;;;;;10.50;99.90;;;;;;4978330;28;20021;-75
2023/09/24 06:09:30;;;;;;;;;;;10.50;99.90;;;;;;4978635;28;19956;-75
2023/09/24 06:11:55;;;;;;;;;;;10.50;99.90;;;;;;4995602;28;19925;-75
2023/09/24 06:14:21;;;;;;;;;;;10.50;99.90;;;;;;4978493;28;19922;-75
2023/09/24 06:16:46;;;;;;;;;;;10.50;99.90;;;;;;4995894;28;20485;-76
2023/09/24 06:19:13;;;;;;;;;;;10.60;99.90;;;;;;4978073;28;20312;-76
2023/09/24 06:21:38;;;;;;;;;;;10.50;99.90;;;;;;4995733;28;19929;-76
2023/09/24 06:24:04;;;;;;;;;;;10.60;99.90;;;;;;4978217;28;20289;-76
2023/09/24 06:26:32;;;;;;;;;;;10.60;99.90;;;;;;4977994;28;20412;-76
2023/09/24 06:28:58;;;;;;;;;;;10.60;99.90;;;;;;4978245;28;19922;-76
2023/09/24 06:31:23;;;;;;;;;;;10.60;99.90;;;;;;4977986;28;20294;-76
2023/09/24 06:33:49;;;;;;;;;;;10.70;99.90;;;;;;4977814;28;20349;-75
2023/09/24 06:36:16;;;;;;;;;;;10.70;99.90;;;;;;4961609;28;20404;-75
2023/09/24 06:38:41;;;;;;;;;;;10.70;99.90;;;;;;4978151;28;20262;-75
2023/09/24 06:41:07;;;;;;;;;;;10.80;99.90;;;;;;4977690;28;19922;-75
2023/09/24 06:43:33;;;;;;;;;;;10.80;99.90;;;;;;4995385;28;20080;-76
2023/09/24 06:46:01;;;;;;;;;;;10.80;99.90;;;;;;4994949;28;19955;-77
2023/09/24 06:48:26;;;;;;;;;;;10.80;99.90;;;;;;4977523;28;20396;-74
2023/09/24 06:50:55;;;;;;;;;;;10.90;99.90;;;;;;4977392;28;19922;-75
2023/09/24 06:53:22;;;;;;;;;;;10.90;99.90;;;;;;4994847;28;20397;-75
2023/09/24 06:55:47;;;;;;;;;;;10.90;99.90;;;;;;4978249;28;19926;-76
2023/09/24 06:58:13;;;;;;;;;;;10.90;99.90;;;;;;4995118;28;19929;-75
2023/09/24 07:00:39;;;;;;;;;;;11.00;99.90;;;;;;4977193;28;19922;-76
2023/09/24 07:03:05;;;;;;;;;;;11.00;99.90;;;;;;4977785;28;19932;-75
2023/09/24 07:05:31;;;;;;;;;;;11.00;99.90;;;;;;4977320;28;20305;-75
2023/09/24 07:07:57;;;;;;;;;;;11.10;99.90;;;;;;4977357;28;20414;-74
2023/09/24 07:10:23;;;;;;;;;;;11.10;99.90;;;;;;4994626;28;19935;-76
2023/09/24 07:12:48;;;;;;;;;;;11.10;99.90;;;;;;4977252;28;20377;-75
2023/09/24 07:15:14;;;;;;;;;;;11.20;99.90;;;;;;4994692;28;19973;-75
2023/09/24 07:17:40;;;;;;;;;;;11.20;99.90;;;;;;4977202;28;19922;-75
2023/09/24 07:20:07;;;;;;;;;;;11.20;99.90;;;;;;4995718;28;20080;-76
2023/09/24 07:22:33;;;;;;;;;;;11.30;99.90;;;;;;4977309;28;19922;-76
2023/09/24 07:24:58;;;;;;;;;;;11.30;99.90;;;;;;4993710;28;20388;-77
2023/09/24 07:27:24;;;;;;;;;;;11.40;99.90;;;;;;4997026;28;19921;-77
2023/09/24 07:29:50;;;;;;;;;;;11.50;99.90;;;;;;4996453;28;19929;-76
2023/09/24 07:32:15;;;;;;;;;;;11.50;99.90;;;;;;4984807;28;20004;-75
2023/09/24 07:34:41;;;;;;;;;;;11.60;99.90;;;;;;4974985;28;19922;-76
2023/09/24 07:37:08;;;;;;;;;;;11.60;99.90;;;;;;4957804;28;19961;-74
2023/09/24 07:39:34;;;;;;;;;;;11.70;99.90;;;;;;4957852;28;19965;-75
2023/09/24 07:42:00;;;;;;;;;;;11.80;99.90;;;;;;4957691;28;19922;-76
2023/09/24 07:44:26;;;;;;;;;;;11.90;99.90;;;;;;4943323;28;19926;-75
2023/09/24 07:46:52;;;;;;;;;;;11.90;99.90;;;;;;4961894;28;20278;-76
2023/09/24 07:49:18;;;;;;;;;;;12.00;99.90;;;;;;4978953;28;19951;-76
2023/09/24 07:51:43;;;;;;;;;;;12.10;99.90;;;;;;4961391;28;19973;-76
2023/09/24 07:54:09;;;;;;;;;;;12.20;99.90;;;;;;4967084;28;19929;-76
2023/09/24 07:56:38;;;;;;;;;;;12.20;99.90;;;;;;4971456;28;19980;-76
2023/09/24 07:59:04;;;;;;;;;;;12.30;99.90;;;;;;4980024;28;19944;-75
2023/09/24 08:01:30;;;;;;;;;;;12.40;99.90;;;;;;4979777;28;20291;-75
2023/09/24 08:03:55;;;;;;;;;;;12.40;99.90;;;;;;4979823;28;19930;-77
2023/09/24 08:06:21;;;;;;;;;;;12.50;99.90;;;;;;4979509;28;19922;-76
2023/09/24 08:08:46;;;;;;;;;;;12.50;99.90;;;;;;4997035;28;19926;-74
2023/09/24 08:11:12;;;;;;;;;;;12.50;99.90;;;;;;4979746;28;19922;-78
2023/09/24 08:13:37;;;;;;;;;;;12.60;99.90;;;;;;4963786;28;19939;-74
2023/09/24 08:16:03;;;;;;;;;;;12.70;99.90;;;;;;4979831;28;19928;-75
2023/09/24 08:18:29;;;;;;;;;;;12.70;99.90;;;;;;4979395;28;19922;-75
2023/09/24 08:20:55;;;;;;;;;;;12.80;99.90;;;;;;4996779;28;19988;-75
2023/09/24 08:23:21;;;;;;;;;;;12.90;99.90;;;;;;4979228;28;19922;-75
2023/09/24 08:25:50;;;;;;;;;;;13.00;99.90;;;;;;4979210;28;20017;-75
2023/09/24 08:28:17;;;;;;;;;;;13.10;99.90;;;;;;4979256;28;19966;-76
2023/09/24 08:30:43;;;;;;;;;;;13.20;99.90;;;;;;4979416;28;19922;-76
2023/09/24 08:33:09;;;;;;;;;;;13.30;99.90;;;;;;4979012;28;19925;-76
2023/09/24 08:35:39;;;;;;;;;;;13.30;99.90;;;;;;4996608;28;19966;-76
2023/09/24 08:38:05;;;;;;;;;;;13.40;99.90;;;;;;4979085;28;20382;-76
2023/09/24 08:40:30;;;;;;;;;;;13.50;99.90;;;;;;4978767;28;20012;-75
2023/09/24 08:42:56;;;;;;;;;;;13.60;99.90;;;;;;4978934;28;20282;-76
2023/09/24 08:45:26;;;;;;;;;;;13.70;99.90;;;;;;4978838;28;19933;-75
2023/09/24 08:47:52;;;;;;;;;;;13.80;99.90;;;;;;4979101;28;19922;-76
2023/09/24 08:50:18;;;;;;;;;;;13.90;99.90;;;;;;4996199;28;20020;-76
2023/09/24 08:52:44;;;;;;;;;;;14.00;99.90;;;;;;4996516;28;20016;-76
2023/09/24 08:55:10;;;;;;;;;;;14.10;99.90;;;;;;4978629;28;20055;-77
2023/09/24 08:57:36;;;;;;;;;;;14.30;99.90;;;;;;4978976;28;20387;-75
2023/09/24 09:00:06;;;;;;;;;;;14.40;99.90;;;;;;4978612;28;19922;-75
2023/09/24 09:02:32;;;;;;;;;;;14.50;99.90;;;;;;4978449;28;19929;-76
2023/09/24 09:04:57;;;;;;;;;;;14.60;99.90;;;;;;4978400;28;19980;-75
2023/09/24 09:07:23;;;;;;;;;;;14.70;99.90;;;;;;4978445;28;20325;-75
2023/09/24 09:09:56;;;;;;;;;;;14.80;99.90;;;;;;4962190;28;19929;-75
2023/09/24 09:12:23;;;;;;;;;;;14.90;99.90;;;;;;4996078;28;20016;-76
2023/09/24 09:14:49;;;;;;;;;;;15.10;99.90;;;;;;4978313;28;20389;-75
2023/09/24 09:17:15;;;;;;;;;;;15.20;99.90;;;;;;4978271;28;19932;-76
2023/09/24 09:19:48;;;;;;;;;;;15.30;99.90;;;;;;4978217;28;19922;-76
2023/09/24 09:22:17;;;;;;;;;;;15.40;99.90;;;;;;4978514;28;20378;-76
2023/09/24 09:24:43;;;;;;;;;;;15.40;99.90;;;;;;4995532;28;19926;-76
2023/09/24 09:27:09;;;;;;;;;;;15.60;99.90;;;;;;4978363;28;20008;-76
2023/09/24 09:29:34;;;;;;;;;;;15.70;99.90;;;;;;4966534;28;19921;-75
2023/09/24 09:32:00;;;;;;;;;;;15.70;99.90;;;;;;4949438;28;19945;-76
2023/09/24 09:34:27;;;;;;;;;;;15.70;99.90;;;;;;4958102;28;20370;-77
2023/09/24 09:36:53;;;;;;;;;;;15.80;99.90;;;;;;4957787;28;19972;-76
2023/09/24 09:39:18;;;;;;;;;;;15.80;99.90;;;;;;4974999;28;19930;-75
2023/09/24 09:41:47;;;;;;;;;;;15.90;99.90;;;;;;4974963;28;20283;-75
2023/09/24 09:44:13;;;;;;;;;;;16.00;99.90;;;;;;4974844;28;19996;-75
2023/09/24 09:46:43;;;;;;;;;;;16.10;99.90;;;;;;4957458;28;20457;-76
2023/09/24 09:49:09;;;;;;;;;;;16.20;99.90;;;;;;4957450;28;19926;-76
2023/09/24 09:51:38;;;;;;;;;;;16.20;99.90;;;;;;4974847;28;20012;-76
2023/09/24 09:54:08;;;;;;;;;;;16.20;99.90;;;;;;4974851;28;19922;-76
2023/09/24 09:56:37;;;;;;;;;;;16.30;99.90;;;;;;4957750;28;19922;-76
2023/09/24 09:59:07;;;;;;;;;;;16.40;99.90;;;;;;4957921;28;19930;-75
2023/09/24 10:01:33;;;;;;;;;;;16.50;99.90;;;;;;4957120;28;19929;-75
2023/09/24 10:04:06;;;;;;;;;;;16.50;99.90;;;;;;4957133;28;19926;-76
2023/09/24 10:06:37;;;;;;;;;;;16.50;99.90;;;;;;4956939;28;20279;-75
2023/09/24 10:09:22;;;;;;;;;;;16.60;99.90;;;;;;4941143;28;19922;-76
2023/09/24 10:11:52;;;;;;;;;;;16.60;99.90;;;;;;4965751;28;19926;-76
2023/09/24 10:14:34;;;;;;;;;;;16.60;99.90;;;;;;4965016;28;19926;-75
2023/09/24 10:17:18;;;;;;;;;;;16.70;99.90;;;;;;4958510;28;19929;-76
2023/09/24 10:19:47;;;;;;;;;;;16.70;99.90;;;;;;4956073;28;19969;-75
2023/09/24 10:22:26;;;;;;;;;;;16.80;99.90;;;;;;4955972;28;19926;-75
2023/09/24 10:24:52;;;;;;;;;;;16.90;99.90;;;;;;4973492;28;19969;-76
2023/09/24 10:27:25;;;;;;;;;;;17.00;99.90;;;;;;4939998;28;19993;-76
2023/09/24 10:29:52;;;;;;;;;;;17.10;99.90;;;;;;4955687;28;19928;-77
2023/09/24 10:32:18;;;;;;;;;;;17.10;99.90;;;;;;4955841;28;19951;-75
2023/09/24 10:34:59;;;;;;;;;;;17.20;99.90;;;;;;4973263;28;20420;-75
2023/09/24 10:37:29;;;;;;;;;;;17.30;99.90;;;;;;4956085;28;19926;-74
2023/09/24 10:39:58;;;;;;;;;;;17.40;99.90;;;;;;4956132;28;19944;-75
2023/09/24 10:42:24;;;;;;;;;;;17.50;99.90;;;;;;4940187;28;19945;-75
2023/09/24 10:45:08;;;;;;;;;;;17.60;99.90;;;;;;4955327;28;19930;-76
2023/09/24 10:47:36;;;;;;;;;;;17.60;99.90;;;;;;4955608;28;20060;-77
2023/09/24 10:50:03;;;;;;;;;;;17.80;99.90;;;;;;4955760;28;20036;-78
2023/09/24 10:52:44;;;;;;;;;;;17.80;99.90;;;;;;4955491;28;20282;-76
2023/09/24 10:55:10;;;;;;;;;;;17.80;99.90;;;;;;4955370;28;19922;-74
2023/09/24 10:57:36;;;;;;;;;;;17.80;99.90;;;;;;4955415;28;19966;-75
2023/09/24 11:00:02;;;;;;;;;;;17.80;99.90;;;;;;4973158;28;20281;-75
2023/09/24 11:02:28;;;;;;;;;;;17.90;99.90;;;;;;4983869;28;20480;-76
2023/09/24 11:04:53;;;;;;;;;;;17.90;99.90;;;;;;4958881;28;20020;-76
2023/09/24 11:07:19;;;;;;;;;;;18.00;99.90;;;;;;4974368;28;20370;-76
2023/09/24 11:09:49;;;;;;;;;;;18.00;99.90;;;;;;4974544;28;19932;-76
2023/09/24 11:12:15;;;;;;;;;;;18.00;99.90;;;;;;4974758;28;19943;-75
2023/09/24 11:14:40;;;;;;;;;;;18.10;99.90;;;;;;4991722;28;20366;-75
2023/09/24 11:17:06;;;;;;;;;;;18.10;99.90;;;;;;4974351;28;19937;-76
2023/09/24 11:19:41;;;;;;;;;;;18.20;99.90;;;;;;4990717;28;19935;-76
2023/09/24 11:22:15;;;;;;;;;;;18.30;99.90;;;;;;4974337;28;20064;-76
2023/09/24 11:24:41;;;;;;;;;;;18.40;99.90;;;;;;4991846;28;19926;-74
2023/09/24 11:27:07;;;;;;;;;;;18.50;99.90;;;;;;4974642;28;20294;-75
2023/09/24 11:29:32;;;;;;;;;;;18.50;99.90;;;;;;4974302;28;20436;-77
2023/09/24 11:31:58;;;;;;;;;;;18.60;99.90;;;;;;4974456;28;20309;-75
2023/09/24 11:34:23;;;;;;;;;;;18.60;99.90;;;;;;4991915;28;20053;-75
2023/09/24 11:36:58;;;;;;;;;;;18.60;99.90;;;;;;4973785;28;19933;-76
2023/09/24 11:39:24;;;;;;;;;;;18.60;99.90;;;;;;4991680;28;20377;-75
2023/09/24 11:41:50;;;;;;;;;;;18.70;99.90;;;;;;4973989;28;19926;-76
2023/09/24 11:44:16;;;;;;;;;;;18.80;99.90;;;;;;4974096;28;20393;-76
2023/09/24 11:46:43;;;;;;;;;;;18.80;99.90;;;;;;4991286;28;19926;-76
2023/09/24 11:49:09;;;;;;;;;;;18.80;99.90;;;;;;4991681;28;20021;-75
2023/09/24 11:51:35;;;;;;;;;;;18.80;99.90;;;;;;4974061;28;20013;-76
2023/09/24 11:54:02;;;;;;;;;;;18.90;99.90;;;;;;4973765;28;19973;-75
2023/09/24 11:56:27;;;;;;;;;;;18.90;99.90;;;;;;4967308;28;19988;-75
2023/09/24 11:58:55;;;;;;;;;;;19.00;99.90;;;;;;4954635;28;20401;-75
2023/09/24 12:01:20;;;;;;;;;;;19.10;99.90;;;;;;4954314;28;19928;-75
2023/09/24 12:03:46;;;;;;;;;;;19.20;99.90;;;;;;4954735;28;20285;-76
2023/09/24 12:06:11;;;;;;;;;;;19.30;99.90;;;;;;4971754;28;19933;-76
2023/09/24 12:08:37;;;;;;;;;;;19.20;99.90;;;;;;4972043;28;19926;-76
2023/09/24 12:11:02;;;;;;;;;;;19.20;99.90;;;;;;4973052;28;19922;-76
2023/09/24 12:13:29;;;;;;;;;;;19.10;99.90;;;;;;4991340;28;20378;-75
2023/09/24 12:15:55;;;;;;;;;;;19.10;99.90;;;;;;4974254;28;20012;-75
2023/09/24 12:18:21;;;;;;;;;;;19.00;99.90;;;;;;4973874;28;20350;-75
2023/09/24 12:20:47;;;;;;;;;;;19.00;99.90;;;;;;4991492;28;19926;-75
2023/09/24 12:23:13;;;;;;;;;;;19.00;99.90;;;;;;4973691;28;19945;-76
2023/09/24 12:25:40;;;;;;;;;;;19.10;99.90;;;;;;4959510;28;19993;-76
2023/09/24 12:28:06;;;;;;;;;;;19.00;99.90;;;;;;4972431;28;19976;-75
2023/09/24 12:30:32;;;;;;;;;;;18.90;99.90;;;;;;4959335;28;20297;-74
2023/09/24 12:32:58;;;;;;;;;;;19.00;99.90;;;;;;4969946;28;19926;-75
2023/09/24 12:35:26;;;;;;;;;;;19.10;99.90;;;;;;4978245;28;20366;-74
2023/09/24 12:37:55;;;;;;;;;;;19.20;99.90;;;;;;4977132;28;19921;-76
2023/09/24 12:40:21;;;;;;;;;;;19.20;99.90;;;;;;4978178;28;19926;-76
2023/09/24 12:42:47;;;;;;;;;;;19.30;99.90;;;;;;4977354;28;20381;-76
2023/09/24 12:45:13;;;;;;;;;;;19.40;99.90;;;;;;4961548;28;19980;-76
2023/09/24 12:47:39;;;;;;;;;;;19.50;99.90;;;;;;4976893;28;19965;-75
2023/09/24 12:50:06;;;;;;;;;;;19.50;99.90;;;;;;4978077;28;20250;-76
2023/09/24 12:52:39;;;;;;;;;;;19.60;99.90;;;;;;4966637;28;20024;-76
2023/09/24 12:55:07;;;;;;;;;;;19.70;99.90;;;;;;4988108;28;19922;-74
2023/09/24 12:57:33;;;;;;;;;;;19.70;99.90;;;;;;4974538;28;19922;-74
2023/09/24 12:59:58;;;;;;;;;;;19.70;99.90;;;;;;4976870;28;19933;-76
2023/09/24 13:02:24;;;;;;;;;;;19.90;99.90;;;;;;4975415;28;20009;-77
2023/09/24 13:04:50;;;;;;;;;;;19.90;99.90;;;;;;4977544;28;19930;-75
2023/09/24 13:07:15;;;;;;;;;;;19.80;99.90;;;;;;4975472;28;20404;-76
2023/09/24 13:09:41;;;;;;;;;;;19.70;99.90;;;;;;4976355;28;19922;-76
2023/09/24 13:12:07;;;;;;;;;;;19.70;99.90;;;;;;4990613;28;19953;-77
2023/09/24 13:14:34;;;;;;;;;;;19.70;99.90;;;;;;4993667;28;19929;-77
2023/09/24 13:16:59;;;;;;;;;;;19.60;99.90;;;;;;4960008;28;20294;-75
2023/09/24 13:19:25;;;;;;;;;;;19.70;99.90;;;;;;4977147;28;19925;-75
2023/09/24 13:21:50;;;;;;;;;;;19.80;99.90;;;;;;4993464;28;19926;-74
2023/09/24 13:24:16;;;;;;;;;;;19.80;99.90;;;;;;4960125;28;19922;-74
2023/09/24 13:26:43;;;;;;;;;;;19.80;99.90;;;;;;4976869;28;19929;-75
2023/09/24 13:29:08;;;;;;;;;;;19.90;99.90;;;;;;4976158;28;20643;-76
2023/09/24 13:31:34;;;;;;;;;;;19.90;99.90;;;;;;4976831;28;19929;-75
2023/09/24 13:34:06;;;;;;;;;;;20.10;99.90;;;;;;4959542;28;19925;-75
2023/09/24 13:36:32;;;;;;;;;;;20.10;99.90;;;;;;4994108;28;19963;-75
2023/09/24 13:39:01;;;;;;;;;;;20.10;99.90;;;;;;4975182;28;20035;-76
2023/09/24 13:41:27;;;;;;;;;;;20.20;99.90;;;;;;4975462;28;19928;-75
2023/09/24 13:43:53;;;;;;;;;;;20.20;99.90;;;;;;4975138;28;20468;-76
2023/09/24 13:46:19;;;;;;;;;;;20.40;99.90;;;;;;4976478;28;19989;-74
2023/09/24 13:48:44;;;;;;;;;;;20.40;99.90;;;;;;4993248;28;19969;-75
2023/09/24 13:51:10;;;;;;;;;;;20.30;99.90;;;;;;4993495;28;20037;-75
2023/09/24 13:53:35;;;;;;;;;;;20.30;99.90;;;;;;4992941;28;19932;-75
2023/09/24 13:56:01;;;;;;;;;;;20.20;99.90;;;;;;4976600;28;19926;-76
2023/09/24 13:58:27;;;;;;;;;;;20.20;99.90;;;;;;4993081;28;19928;-77
2023/09/24 14:00:52;;;;;;;;;;;20.20;99.90;;;;;;4976375;28;20004;-76
2023/09/24 14:03:19;;;;;;;;;;;20.20;99.90;;;;;;4993135;28;20064;-77
2023/09/24 14:05:45;;;;;;;;;;;20.30;99.90;;;;;;4960247;28;20024;-74
2023/09/24 14:13:39;;;;;;;;;;;20.30;99.90;;;;;;4975441;28;20337;-76
2023/09/24 14:16:10;;;;;;;;;;;20.20;99.90;;;;;;4975593;28;19925;-76
2023/09/24 14:18:35;;;;;;;;;;;20.20;99.90;;;;;;4963599;28;19926;-75
2023/09/24 14:21:07;;;;;;;;;;;20.10;99.90;;;;;;4956747;28;20290;-76
2023/09/24 14:23:32;;;;;;;;;;;20.10;99.90;;;;;;4966468;28;19957;-78
2023/09/24 14:25:58;;;;;;;;;;;20.00;99.90;;;;;;4969260;28;20011;-76
2023/09/24 14:28:23;;;;;;;;;;;20.00;99.90;;;;;;4983343;28;20358;-76
2023/09/24 14:30:49;;;;;;;;;;;19.90;99.90;;;;;;4993213;28;19926;-78
2023/09/24 14:33:14;;;;;;;;;;;19.80;99.90;;;;;;4975751;28;20043;-77
2023/09/24 14:35:40;;;;;;;;;;;19.90;99.90;;;;;;4975839;28;19926;-75
2023/09/24 14:38:05;;;;;;;;;;;19.90;99.90;;;;;;4975048;28;20017;-77
2023/09/24 14:40:32;;;;;;;;;;;20.00;99.90;;;;;;4974637;28;20016;-76
2023/09/24 14:42:58;;;;;;;;;;;20.00;99.90;;;;;;4992394;28;20440;-77
2023/09/24 14:45:23;;;;;;;;;;;20.00;99.90;;;;;;4992207;28;20020;-75
2023/09/24 14:47:49;;;;;;;;;;;20.00;99.90;;;;;;4975136;28;19941;-77
2023/09/24 14:50:14;;;;;;;;;;;20.00;99.90;;;;;;4974778;28;20386;-76
2023/09/24 14:52:40;;;;;;;;;;;20.00;99.90;;;;;;4958630;28;20026;-76
2023/09/24 14:55:06;;;;;;;;;;;20.00;99.90;;;;;;4992449;28;20025;-75
2023/09/24 14:57:31;;;;;;;;;;;19.90;99.90;;;;;;4974872;28;19925;-76
2023/09/24 14:59:57;;;;;;;;;;;20.00;99.90;;;;;;4974844;28;19988;-75
2023/09/24 15:02:22;;;;;;;;;;;20.00;99.90;;;;;;4992036;28;19921;-75
2023/09/24 15:04:49;;;;;;;;;;;19.90;99.90;;;;;;4974653;28;19934;-75
2023/09/24 15:07:15;;;;;;;;;;;19.90;99.90;;;;;;4974516;28;19926;-76
2023/09/24 15:09:40;;;;;;;;;;;20.00;99.90;;;;;;4974528;28;19957;-75
2023/09/24 15:12:07;;;;;;;;;;;20.00;99.90;;;;;;4974971;28;19922;-75
2023/09/24 15:14:32;;;;;;;;;;;20.00;99.90;;;;;;4974364;28;19922;-76
2023/09/24 15:16:58;;;;;;;;;;;20.00;99.90;;;;;;4974533;28;19922;-77
2023/09/24 15:19:24;;;;;;;;;;;20.10;99.90;;;;;;4972705;28;19922;-75
2023/09/24 15:21:49;;;;;;;;;;;20.00;99.90;;;;;;4968385;28;19926;-75
2023/09/24 15:24:15;;;;;;;;;;;20.10;99.90;;;;;;4975423;28;20412;-76
2023/09/24 15:26:41;;;;;;;;;;;20.10;99.90;;;;;;4967418;28;19925;-75
2023/09/24 15:29:06;;;;;;;;;;;20.00;99.90;;;;;;4966547;28;20309;-76
2023/09/24 15:31:32;;;;;;;;;;;20.00;99.90;;;;;;4955022;28;19933;-75
2023/09/24 15:33:58;;;;;;;;;;;20.00;99.90;;;;;;4954882;28;20337;-76
2023/09/24 15:36:25;;;;;;;;;;;20.00;99.90;;;;;;4972061;28;19922;-76
2023/09/24 15:38:50;;;;;;;;;;;20.00;99.90;;;;;;4972260;28;20065;-75
2023/09/24 15:41:16;;;;;;;;;;;20.00;99.90;;;;;;4954799;28;20017;-76
2023/09/24 15:43:41;;;;;;;;;;;20.00;99.90;;;;;;4954829;28;19926;-76
2023/09/24 15:46:17;;;;;;;;;;;20.00;99.90;;;;;;4954784;28;19926;-76
2023/09/24 15:48:42;;;;;;;;;;;19.90;99.90;;;;;;4954636;28;19930;-75
2023/09/24 15:51:15;;;;;;;;;;;19.90;99.90;;;;;;4955070;28;19972;-75
2023/09/24 15:53:41;;;;;;;;;;;19.90;99.90;;;;;;4954702;28;19926;-75
2023/09/24 15:56:06;;;;;;;;;;;19.80;99.90;;;;;;4954730;28;19922;-75
2023/09/24 15:58:32;;;;;;;;;;;19.80;99.90;;;;;;4954886;28;19933;-74
2023/09/24 16:00:58;;;;;;;;;;;19.80;99.90;;;;;;4954909;28;19922;-76
2023/09/24 16:03:24;;;;;;;;;;;19.70;99.90;;;;;;4955116;28;19982;-78
2023/09/24 16:05:49;;;;;;;;;;;19.70;99.90;;;;;;4957024;28;20481;-76
2023/09/24 16:08:15;;;;;;;;;;;19.60;99.90;;;;;;4942704;28;20282;-76
2023/09/24 16:10:40;;;;;;;;;;;19.50;99.90;;;;;;4959016;28;20369;-76
2023/09/24 16:13:06;;;;;;;;;;;19.50;99.90;;;;;;4958745;28;20291;-77
2023/09/24 16:15:32;;;;;;;;;;;19.40;99.90;;;;;;4958510;28;19933;-76
2023/09/24 16:17:57;;;;;;;;;;;19.30;99.90;;;;;;4958357;28;20275;-76
2023/09/24 16:20:23;;;;;;;;;;;19.20;99.90;;;;;;4958172;28;19926;-76
2023/09/24 16:22:51;;;;;;;;;;;19.10;99.90;;;;;;4958207;28;20377;-76
2023/09/24 16:25:17;;;;;;;;;;;19.10;99.90;;;;;;4942248;28;19933;-75
2023/09/24 16:27:43;;;;;;;;;;;19.00;99.90;;;;;;4958064;28;19922;-76
2023/09/24 16:30:08;;;;;;;;;;;18.90;99.90;;;;;;4975670;28;20281;-77
2023/09/24 16:32:35;;;;;;;;;;;18.80;99.90;;;;;;4957817;28;20302;-77
2023/09/24 16:35:00;;;;;;;;;;;18.80;99.90;;;;;;4958318;28;19929;-76
2023/09/24 16:37:27;;;;;;;;;;;18.60;99.90;;;;;;4958164;28;20001;-76
2023/09/24 16:39:53;;;;;;;;;;;18.60;99.90;;;;;;4957767;28;20286;-77
2023/09/24 16:42:19;;;;;;;;;;;18.50;99.90;;;;;;4957879;28;19922;-77
2023/09/24 16:44:44;;;;;;;;;;;18.40;99.90;;;;;;4957626;28;19991;-77
2023/09/24 16:47:10;;;;;;;;;;;18.40;99.90;;;;;;4957903;28;20513;-76
2023/09/24 16:49:35;;;;;;;;;;;18.30;99.90;;;;;;4974987;28;20341;-77
2023/09/24 16:52:01;;;;;;;;;;;18.20;99.90;;;;;;4941990;28;19926;-76
2023/09/24 16:54:27;;;;;;;;;;;18.10;99.90;;;;;;4957892;28;20302;-76
2023/09/24 16:56:53;;;;;;;;;;;18.10;99.90;;;;;;4957598;28;19929;-75
2023/09/24 16:59:22;;;;;;;;;;;18.00;99.90;;;;;;4957528;28;19926;-77
2023/09/24 17:01:48;;;;;;;;;;;18.00;99.90;;;;;;4957325;28;19926;-76
2023/09/24 17:04:13;;;;;;;;;;;17.90;99.90;;;;;;4957317;28;19926;-76
2023/09/24 17:06:39;;;;;;;;;;;17.80;99.90;;;;;;4957476;28;19922;-77
2023/09/24 17:09:04;;;;;;;;;;;17.80;99.90;;;;;;4977948;28;19928;-76
2023/09/24 17:11:30;;;;;;;;;;;17.70;99.90;;;;;;4960312;28;19932;-76
2023/09/24 17:13:55;;;;;;;;;;;17.60;99.90;;;;;;4986055;28;19927;-76
2023/09/24 17:16:21;;;;;;;;;;;17.60;99.90;;;;;;4991618;28;20368;-76
2023/09/24 17:18:48;;;;;;;;;;;17.50;99.90;;;;;;4976739;28;20437;-76
2023/09/24 17:21:15;;;;;;;;;;;17.50;99.90;;;;;;4993771;28;19932;-76
2023/09/24 17:23:41;;;;;;;;;;;17.40;99.90;;;;;;4993903;28;19926;-76
2023/09/24 17:26:11;;;;;;;;;;;17.30;99.90;;;;;;4976298;28;20038;-75
2023/09/24 17:28:37;;;;;;;;;;;17.30;99.90;;;;;;4960144;28;20397;-74
2023/09/24 17:31:03;;;;;;;;;;;17.20;99.90;;;;;;4976151;28;19972;-75
2023/09/24 17:33:30;;;;;;;;;;;17.10;99.90;;;;;;4993859;28;20333;-76
2023/09/24 17:35:56;;;;;;;;;;;17.00;99.90;;;;;;4976240;28;19930;-75
2023/09/24 17:38:22;;;;;;;;;;;17.00;99.90;;;;;;4976150;28;20433;-76
2023/09/24 17:40:49;;;;;;;;;;;16.90;99.90;;;;;;4976098;28;19928;-75
2023/09/24 17:43:15;;;;;;;;;;;16.80;99.90;;;;;;4993364;28;19922;-76
2023/09/24 17:45:40;;;;;;;;;;;16.80;99.90;;;;;;4993201;28;19930;-77
2023/09/24 17:48:06;;;;;;;;;;;16.70;99.90;;;;;;4975976;28;20396;-75
2023/09/24 17:50:32;;;;;;;;;;;16.60;99.90;;;;;;4993534;28;19926;-77
2023/09/24 17:52:57;;;;;;;;;;;16.60;99.90;;;;;;4975896;28;19972;-75
2023/09/24 17:55:23;;;;;;;;;;;16.50;99.90;;;;;;4975765;28;19985;-75
2023/09/24 17:57:48;;;;;;;;;;;16.50;99.90;;;;;;4975844;28;19929;-76
2023/09/24 18:00:14;;;;;;;;;;;16.40;99.90;;;;;;4975682;28;19925;-76
2023/09/24 18:02:40;;;;;;;;;;;16.40;99.90;;;;;;4975879;28;19922;-75
2023/09/24 18:05:05;;;;;;;;;;;16.30;99.90;;;;;;4975714;28;20045;-75
2023/09/24 18:07:31;;;;;;;;;;;16.30;99.90;;;;;;4993160;28;20389;-75
2023/09/24 18:09:56;;;;;;;;;;;16.30;99.90;;;;;;4975561;28;19922;-75
2023/09/24 18:12:22;;;;;;;;;;;16.20;99.90;;;;;;4975737;28;19948;-75
2023/09/24 18:14:47;;;;;;;;;;;16.20;99.90;;;;;;4975480;28;20301;-75
2023/09/24 18:17:13;;;;;;;;;;;16.10;99.90;;;;;;4993137;28;20340;-76